This is the latest recevied weather packets stored in our database for station/object DL1NUX-15. If no packets are shown the sender has not sent any weather packets the latest 10 day(s).
| Time | Temp. | Humidity | Pressure | Rain* | Wind** | Luminosity | Snow |
|---|---|---|---|---|---|---|---|
| 1777887335 | 20.56° C | 47% | 1015.7 hPa | 0 mm | - | 529 W/m² | - |
| 1777885536 | 20° C | 48% | 1016 hPa | 0 mm | - | 593 W/m² | - |
| 1777884936 | 20° C | 49% | 1016.1 hPa | 0 mm | - | 654 W/m² | - |
| 1777884828 | 20° C | 49% | 1016 hPa | 0 mm | - | 606 W/m² | - |
| 1777884337 | 20° C | 49% | 1016 hPa | 0 mm | - | 606 W/m² | - |
| 1777880739 | 18.89° C | 51% | 1016 hPa | 0 mm | - | 434 W/m² | - |
| 1777879540 | 18.89° C | 54% | 1016 hPa | 0 mm | - | 423 W/m² | - |
| 1777874144 | 15.56° C | 68% | 1015.6 hPa | 0 mm | - | 153 W/m² | - |
| 1777873544 | 15° C | 70% | 1015.6 hPa | 0 mm | - | 129 W/m² | - |
| 1777872345 | 15° C | 68% | 1015.6 hPa | 0 mm | - | 77 W/m² | - |
| 1777871745 | 13.89° C | 72% | 1015.7 hPa | 0 mm | - | 81 W/m² | - |
| 1777871146 | 12.78° C | 78% | 1015.6 hPa | 0 mm | - | 60 W/m² | - |
| 1777868732 | 12.78° C | 77% | 1015.4 hPa | 0 mm | - | 15 W/m² | - |
| 1777868133 | 12.78° C | 77% | 1015.4 hPa | 0 mm | - | 10 W/m² | - |
| 1777867532 | 12.78° C | 78% | 1015.4 hPa | 0 mm | - | 8 W/m² | - |
| 1777866932 | 12.78° C | 76% | 1015.3 hPa | 0 mm | - | 1 W/m² | - |
| 1777865733 | 13.33° C | 73% | 1015.2 hPa | 0 mm | - | 0 W/m² | - |
| 1777864534 | 13.33° C | 72% | 1015.3 hPa | 0 mm | - | 0 W/m² | - |
| 1777863336 | 13.89° C | 72% | 1015.3 hPa | 0 mm | - | 0 W/m² | - |
| 1777862136 | 13.33° C | 73% | 1015.2 hPa | 0 mm | - | 0 W/m² | - |
| 1777861536 | 13.33° C | 74% | 1015.4 hPa | 0 mm | - | 0 W/m² | - |
| 1777859738 | 13.89° C | 74% | 1015.4 hPa | 0 mm | - | 0 W/m² | - |
| 1777857939 | 13.89° C | 72% | 1015.5 hPa | 0 mm | - | 0 W/m² | - |
| 1777856141 | 14.44° C | 69% | 1015.4 hPa | 0 mm | - | 0 W/m² | - |
| 1777854941 | 15° C | 66% | 1015.5 hPa | 0 mm | - | 0 W/m² | - |
* Rain latest hour (hover to see other rain measurements)
** Current wind speed in m/s (hover to see current wind gust speed)